LFPBLIRS

Guest
Details From LFPB - Paris Le Bourget
To LIRS - GROSSETO
Flight Number -
Tags decoded
Created
Modified
Stats Distance 518 nm / 960 km
Max Altitude 0 ft / 0 m
Waypoints 2
Social Downloads 0
Likes 0
Share VATSIM

Download

Looking for another format? Having issues loading an existing format? Contact us
Advertisement - Login to hide

Notes

Requested: LFPB LIRS

Route

LFPB LIRS

ID Type Via Altitude Latitude Longitude Leg Dist Tot Dist Heading (true) Name
O LFPB APT - 0 ft / 0 m 48.96431˚ 2.43556˚ - 0 nm - Paris Le Bourget
O LIRS APT - 0 ft / 0 m 42.76028˚ 11.07198˚ 518 nm 518 nm 133° / 139° GROSSETO

Altitude Profile

Advertisement - Login to hide

Weather


0- 5 10 15 20 25 30 35+ Temperature / ° C

Clouds and Precipitation
Forecast for 2017-12-17 06:00 UTC. Updated 2 hours ago

Ground ~20,000 ft ~40,000 ft Winds

LFPB

Details ICAO LFPB (LBG)
Name Paris Le Bourget
Region France
Timezone Europe/Paris (UTC+1.0)
Stats Elevation 218 ft / 66 m (AMSL)
Location 48.964314° 2.435563°
Runways 3
Magnetic Variation 0.607° E

METAR

LFPB 170500Z AUTO 00000KT 7000 2400 SCT016 02/01 Q1024 TEMPO 0800 BCFG BKN003

Decode

TAF

TAF AMD LFPB 170306Z 1703/1724 29005KT 9999 SCT007 SCT025 TEMPO 1703/1712 3000 BR BKN005 PROB40 TEMPO 1703/1710 0800 BCFG BKN003 BECMG 1720/1722 BKN016 TEMPO 1722/1724 4000 -RA BKN010

Decode

Departure Runways

ID Width Length Bearing (true) Bearing (mag) Surface Threshold Offset Overrun Length
03 197 ft / 60 m 8,752 ft / 2,668 m 24.59° 23.98° Asphalt 0 ft / 0 m 0 ft / 0 m
07 180 ft / 55 m 9,853 ft / 3,003 m 67.59° 66.98° Concrete 984 ft / 300 m 0 ft / 0 m
09 148 ft / 45 m 6,059 ft / 1,847 m 85.09° 84.48° Asphalt 0 ft / 0 m 0 ft / 0 m
21 197 ft / 60 m 8,752 ft / 2,668 m 204.61° 204.00° Asphalt 0 ft / 0 m 0 ft / 0 m
25 180 ft / 55 m 9,853 ft / 3,003 m 247.61° 247.00° Concrete 2,956 ft / 901 m 0 ft / 0 m
27 148 ft / 45 m 6,059 ft / 1,847 m 265.11° 264.50° Asphalt 0 ft / 0 m 1,050 ft / 320 m

LIRS

Details ICAO LIRS (GRS)
Name GROSSETO
Region Italy
Timezone Europe/Rome (UTC+1.0)
Stats Elevation 15 ft / 5 m (AMSL)
Location 42.760275° 11.071980°
Runways 2
Magnetic Variation 2.811° E

METAR

LIRS 170355Z 03003KT CAVOK 04/01 Q1013

Decode

TAF

Not found

Destination Runways

ID Width Length Bearing (true) Bearing (mag) Surface Threshold Offset Overrun Length
03 148 ft / 45 m 9,826 ft / 2,995 m 30.87° 28.06° Asphalt 317 ft / 97 m 0 ft / 0 m
03R 80 ft / 24 m 7,731 ft / 2,356 m 30.70° 27.89° Asphalt 0 ft / 0 m 1,091 ft / 333 m
21 148 ft / 45 m 9,826 ft / 2,995 m 210.88° 208.07° Asphalt 0 ft / 0 m 0 ft / 0 m
21L 80 ft / 24 m 7,731 ft / 2,356 m 210.71° 207.90° Asphalt 0 ft / 0 m 875 ft / 267 m

Popular Alternatives